Virginiborg — PBDL — position and weather

sailwx.info

Track history (hours):
 
Tides and Currents Weather Stations Pressure Air Temp Water Temp Dewpoint Dewpoint Depression Visibility Wind Speed Wind Dir Waves Ship Positions

Virginiborg

Last reported at 2014-Nov-23 20:12 UTC. Time now 2014-Nov-24 00:08 UTC.
Position N 53°27' E 004°34'.

Length 132 m; draft 7 m.

Type: Cargo ship. MMSI: 244632000.

Date/timePositionNaut miles runAvg speedWind from/ knotsBaromVisibWave heightAir tempDewpointWater temp
2014-Nov-23 20:12N 53°27' E 004°34'3512.8
2014-Nov-23 17:30N 53°60' E 004°52'1313.1
2014-Nov-23 16:33N 54°11' E 005°01'28212.6
2014-Nov-22 18:07N 57°48' E 010°22'814.8
2014-Nov-22 17:33N 57°49' E 010°37'9 1.2
2014-Nov-22 10:04N 57°40' E 010°38'1112.8
2014-Nov-22 09:14N 57°35' E 010°55'914.1
2014-Nov-22 08:33N 57°32' E 011°12'1212.2
2014-Nov-22 07:33N 57°24' E 011°29'5913.3
2014-Nov-22 03:07N 56°30' E 012°13'713.3
2014-Nov-22 02:33N 56°23' E 012°18'1413.6
2014-Nov-22 01:33N 56°11' E 012°28'1312.9
2014-Nov-22 00:33N 56°00' E 012°41'1212.0
2014-Nov-21 23:34N 55°48' E 012°43'1110.9
2014-Nov-21 22:33N 55°37' E 012°42'7 7.2
2014-Nov-21 21:34N 55°30' E 012°43'1211.8
2014-Nov-21 20:34N 55°18' E 012°42'1313.1
2014-Nov-21 19:34N 55°16' E 013°05'4313.2
2014-Nov-21 16:19N 55°16' E 014°19'1413.4
2014-Nov-21 15:16N 55°27' E 014°35'1013.6
2014-Nov-21 14:31N 55°32' E 014°51'11512.8
2014-Nov-21 05:33N 56°56' E 017°12'1413.6
2014-Nov-21 04:33N 57°09' E 017°20'1413.8
2014-Nov-21 03:32N 57°22' E 017°28'  
2014-Nov-16 16:06N 58°40' E 017°09'6 8.1
2014-Nov-16 15:23N 58°40' E 017°20'62 2.7
2014-Nov-15 16:33N 57°38' E 017°33'1414.0
2014-Nov-15 15:33N 57°24' E 017°30'1414.0
2014-Nov-15 14:32N 57°10' E 017°23'11112.1
2014-Nov-15 05:20N 55°39' E 015°29'1012.5
2014-Nov-15 04:33N 55°34' E 015°14'1312.7
2014-Nov-15 03:33N 55°29' E 014°54'1212.5
2014-Nov-15 02:33N 55°22' E 014°36'1312.9
2014-Nov-15 01:32N 55°11' E 014°21'4812.1
2014-Nov-14 21:33N 55°14' E 012°57'1211.7
2014-Nov-14 20:33N 55°18' E 012°38'1212.5
2014-Nov-14 19:33N 55°30' E 012°42'1010.0
2014-Nov-14 18:33N 55°40' E 012°41'1010.3
2014-Nov-14 17:33N 55°50' E 012°41'1111.2
2014-Nov-14 16:33N 56°01' E 012°38'10 9.8
2014-Nov-14 15:33N 56°09' E 012°26'1211.7
2014-Nov-14 14:33N 56°15' E 012°09'5512.7
2014-Nov-14 10:13N 57°07' E 011°36'3 3.6
2014-Nov-14 09:32N 57°09' E 011°32'0 0.0
2014-Nov-14 08:31N 57°09' E 011°32'4 4.2
2014-Nov-14 07:33N 57°12' E 011°31'1312.9
2014-Nov-14 06:33N 57°25' E 011°24'1212.3
2014-Nov-14 05:33N 57°34' E 011°10'1312.6
2014-Nov-14 04:33N 57°42' E 010°52'8812.6
2014-Nov-13 21:33N 57°07' E 008°21'  
Track history (hours):
 
Tides and Currents Weather Stations Pressure Air Temp Water Temp Dewpoint Dewpoint Depression Visibility Wind Speed Wind Dir Waves Ship Positions

Virginiborg

Last reported at 2014-Nov-23 20:12 UTC. Time now 2014-Nov-24 00:08 UTC.
Position N 53°27' E 004°34'.

Length 132 m; draft 7 m.

Type: Cargo ship. MMSI: 244632000.

Date/timePositionNaut miles runAvg speedWind from/ knotsBaromVisibWave heightAir tempDewpointWater temp
2014-Nov-23 20:12N 53°27' E 004°34'3512.8
2014-Nov-23 17:30N 53°60' E 004°52'1313.1
2014-Nov-23 16:33N 54°11' E 005°01'28212.6
2014-Nov-22 18:07N 57°48' E 010°22'814.8
2014-Nov-22 17:33N 57°49' E 010°37'9 1.2
2014-Nov-22 10:04N 57°40' E 010°38'1112.8
2014-Nov-22 09:14N 57°35' E 010°55'914.1
2014-Nov-22 08:33N 57°32' E 011°12'1212.2
2014-Nov-22 07:33N 57°24' E 011°29'5913.3
2014-Nov-22 03:07N 56°30' E 012°13'713.3
2014-Nov-22 02:33N 56°23' E 012°18'1413.6
2014-Nov-22 01:33N 56°11' E 012°28'1312.9
2014-Nov-22 00:33N 56°00' E 012°41'1212.0
2014-Nov-21 23:34N 55°48' E 012°43'1110.9
2014-Nov-21 22:33N 55°37' E 012°42'7 7.2
2014-Nov-21 21:34N 55°30' E 012°43'1211.8
2014-Nov-21 20:34N 55°18' E 012°42'1313.1
2014-Nov-21 19:34N 55°16' E 013°05'4313.2
2014-Nov-21 16:19N 55°16' E 014°19'1413.4
2014-Nov-21 15:16N 55°27' E 014°35'1013.6
2014-Nov-21 14:31N 55°32' E 014°51'11512.8
2014-Nov-21 05:33N 56°56' E 017°12'1413.6
2014-Nov-21 04:33N 57°09' E 017°20'1413.8
2014-Nov-21 03:32N 57°22' E 017°28'  
2014-Nov-16 16:06N 58°40' E 017°09'6 8.1
2014-Nov-16 15:23N 58°40' E 017°20'62 2.7
2014-Nov-15 16:33N 57°38' E 017°33'1414.0
2014-Nov-15 15:33N 57°24' E 017°30'1414.0
2014-Nov-15 14:32N 57°10' E 017°23'11112.1
2014-Nov-15 05:20N 55°39' E 015°29'1012.5
2014-Nov-15 04:33N 55°34' E 015°14'1312.7
2014-Nov-15 03:33N 55°29' E 014°54'1212.5
2014-Nov-15 02:33N 55°22' E 014°36'1312.9
2014-Nov-15 01:32N 55°11' E 014°21'4812.1
2014-Nov-14 21:33N 55°14' E 012°57'1211.7
2014-Nov-14 20:33N 55°18' E 012°38'1212.5
2014-Nov-14 19:33N 55°30' E 012°42'1010.0
2014-Nov-14 18:33N 55°40' E 012°41'1010.3
2014-Nov-14 17:33N 55°50' E 012°41'1111.2
2014-Nov-14 16:33N 56°01' E 012°38'10 9.8
2014-Nov-14 15:33N 56°09' E 012°26'1211.7
2014-Nov-14 14:33N 56°15' E 012°09'5512.7
2014-Nov-14 10:13N 57°07' E 011°36'3 3.6
2014-Nov-14 09:32N 57°09' E 011°32'0 0.0
2014-Nov-14 08:31N 57°09' E 011°32'4 4.2
2014-Nov-14 07:33N 57°12' E 011°31'1312.9
2014-Nov-14 06:33N 57°25' E 011°24'1212.3
2014-Nov-14 05:33N 57°34' E 011°10'1312.6
2014-Nov-14 04:33N 57°42' E 010°52'8812.6
2014-Nov-13 21:33N 57°07' E 008°21'  

Dump ship's entire track history